createdAt,value
2023-05-03T00:00:43.361Z,2.00
2023-05-03T00:05:42.100Z,2.83
2023-05-03T00:10:40.210Z,2.40
2023-05-03T00:15:39.981Z,2.50
2023-05-03T00:20:38.212Z,3.93
2023-05-03T00:25:36.580Z,2.80
2023-05-03T00:30:34.818Z,2.80
2023-05-03T00:35:34.413Z,3.13
2023-05-03T00:40:32.665Z,2.40
2023-05-03T00:45:33.387Z,2.60
2023-05-03T00:50:31.689Z,2.80
2023-05-03T00:55:32.580Z,2.83
2023-05-03T01:00:31.135Z,2.40
2023-05-03T01:05:33.389Z,2.87
2023-05-03T01:10:42.792Z,2.40
2023-05-03T01:15:51.037Z,2.63
2023-05-03T01:20:51.694Z,2.93
2023-05-03T01:25:54.530Z,2.20
2023-05-03T01:30:54.540Z,3.00
2023-05-03T01:35:57.192Z,3.23
2023-05-03T01:41:01.781Z,2.77
2023-05-03T01:46:00.423Z,2.97
2023-05-03T01:50:58.489Z,2.17
2023-05-03T01:55:58.210Z,2.80
2023-05-03T02:00:56.470Z,2.47
2023-05-03T02:05:54.718Z,2.83
2023-05-03T02:10:52.909Z,2.20
2023-05-03T02:15:52.445Z,2.77
2023-05-03T02:20:50.803Z,2.70
2023-05-03T02:25:49.746Z,2.23
2023-05-03T02:30:47.958Z,2.63
2023-05-03T02:35:47.599Z,2.70
2023-05-03T02:40:45.876Z,2.63
2023-05-03T02:45:44.626Z,2.17
2023-05-03T02:50:44.144Z,2.40
2023-05-03T02:55:44.815Z,2.60
2023-05-03T03:00:43.358Z,2.07
2023-05-03T03:05:42.184Z,2.70
2023-05-03T03:10:40.711Z,2.60
2023-05-03T03:15:43.052Z,2.57
2023-05-03T03:20:41.243Z,2.20
2023-05-03T03:25:39.904Z,3.00
2023-05-03T03:30:38.350Z,2.53
2023-05-03T03:35:48.781Z,2.50
2023-05-03T03:40:49.017Z,3.27
2023-05-03T03:45:48.414Z,2.30
2023-05-03T03:50:50.054Z,2.57
2023-05-03T03:55:50.478Z,2.70
2023-05-03T04:00:49.826Z,2.80
2023-05-03T04:05:53.319Z,2.80
2023-05-03T04:10:52.989Z,2.40
2023-05-03T04:15:55.025Z,2.30
2023-05-03T04:20:54.772Z,2.70
2023-05-03T04:25:53.530Z,3.37
2023-05-03T04:30:53.476Z,3.20
2023-05-03T04:35:59.105Z,2.50
2023-05-03T04:40:58.222Z,2.30
2023-05-03T04:45:57.664Z,2.50
2023-05-03T04:50:59.721Z,2.73
2023-05-03T04:55:58.394Z,3.03
2023-05-03T05:00:57.404Z,3.10
2023-05-03T05:06:01.612Z,3.57
2023-05-03T05:11:03.998Z,3.20
2023-05-03T05:16:03.956Z,3.20
2023-05-03T05:21:04.623Z,2.53
2023-05-03T05:26:04.892Z,4.57
2023-05-03T05:31:04.373Z,2.63
2023-05-03T05:36:05.335Z,3.17
2023-05-03T05:41:06.533Z,3.77
2023-05-03T05:46:05.735Z,2.93
2023-05-03T05:51:06.438Z,3.40
2023-05-03T05:56:06.304Z,3.10
2023-05-03T06:01:06.163Z,2.80
2023-05-03T06:06:09.628Z,2.80
2023-05-03T06:11:08.336Z,2.30
2023-05-03T06:16:07.777Z,2.40
2023-05-03T06:21:06.146Z,2.83
2023-05-03T06:26:06.514Z,2.53
2023-05-03T06:31:05.006Z,2.97
2023-05-03T06:36:05.053Z,3.10
2023-05-03T06:41:03.391Z,2.30
2023-05-03T06:46:03.569Z,2.47
2023-05-03T06:51:01.821Z,2.20
2023-05-03T06:56:00.871Z,2.93
2023-05-03T07:00:58.929Z,2.40
2023-05-03T07:05:58.965Z,2.20
2023-05-03T07:10:57.217Z,1.90
2023-05-03T07:15:55.479Z,1.50
2023-05-03T07:20:53.923Z,1.70
2023-05-03T07:25:54.120Z,2.80
2023-05-03T07:30:52.632Z,2.40
2023-05-03T07:35:50.956Z,2.47
2023-05-03T07:40:49.115Z,2.53
2023-05-03T07:45:48.734Z,2.73
2023-05-03T07:50:46.985Z,2.20
2023-05-03T07:55:45.126Z,2.10
2023-05-03T08:00:43.364Z,2.37
2023-05-03T08:05:43.719Z,2.13
2023-05-03T08:10:42.012Z,1.90
2023-05-03T08:15:40.254Z,1.73
2023-05-03T08:20:39.672Z,2.33
2023-05-03T08:25:39.019Z,1.90
2023-05-03T08:30:37.890Z,2.00
2023-05-03T08:35:36.125Z,3.10
2023-05-03T08:40:37.503Z,1.87
2023-05-03T08:45:37.447Z,1.97
2023-05-03T08:50:42.242Z,1.97
2023-05-03T08:55:40.657Z,2.07
2023-05-03T09:00:41.771Z,2.30
2023-05-03T09:05:41.506Z,2.30
2023-05-03T09:10:41.270Z,1.63
2023-05-03T09:15:41.207Z,2.03
2023-05-03T09:20:42.493Z,2.13
2023-05-03T09:25:48.388Z,1.43
2023-05-03T09:30:48.660Z,1.90
2023-05-03T09:35:57.855Z,1.20
2023-05-03T09:40:56.068Z,2.13
2023-05-03T09:46:09.425Z,1.60
2023-05-03T09:51:08.299Z,2.00
2023-05-03T09:56:09.163Z,1.60
2023-05-03T10:01:09.835Z,1.57
2023-05-03T10:06:18.224Z,1.80
2023-05-03T10:11:19.011Z,1.97
2023-05-03T10:16:22.990Z,1.90
2023-05-03T10:21:32.236Z,1.67
2023-05-03T10:26:30.460Z,1.90
2023-05-03T10:31:49.128Z,1.60
2023-05-03T10:36:50.045Z,2.10
2023-05-03T10:41:59.723Z,1.80
2023-05-03T10:47:10.494Z,1.73
2023-05-03T10:52:42.049Z,1.70
2023-05-03T10:57:42.563Z,1.50
2023-05-03T11:02:52.252Z,1.83
2023-05-03T11:07:50.519Z,1.43
2023-05-03T11:12:50.004Z,1.87
2023-05-03T11:17:49.582Z,1.70
2023-05-03T11:22:47.845Z,2.00
2023-05-03T11:27:47.907Z,2.30
2023-05-03T11:32:46.112Z,2.30
2023-05-03T11:37:45.870Z,1.87
2023-05-03T11:42:54.357Z,1.83
2023-05-03T11:47:53.610Z,3.27
2023-05-03T11:52:53.251Z,2.23
2023-05-03T11:57:52.432Z,2.17
2023-05-03T12:02:50.904Z,1.93
2023-05-03T12:07:50.613Z,1.90
2023-05-03T12:13:00.210Z,1.60
2023-05-03T12:18:00.858Z,2.17
2023-05-03T12:23:04.260Z,2.07
2023-05-03T12:33:08.153Z,2.20
2023-05-03T12:38:09.863Z,2.30
2023-05-03T12:43:10.265Z,2.20
2023-05-03T12:48:08.704Z,2.00
2023-05-03T12:53:09.838Z,1.60
2023-05-03T13:03:21.441Z,2.33
2023-05-03T13:08:21.917Z,1.70
2023-05-03T13:13:21.754Z,1.73
2023-05-03T13:18:20.114Z,2.27
2023-05-03T13:23:18.323Z,2.33
2023-05-03T13:28:20.542Z,2.17
2023-05-03T13:33:20.160Z,2.37
2023-05-03T13:38:18.385Z,2.20
2023-05-03T13:43:16.585Z,2.13
2023-05-03T13:48:18.367Z,1.90
2023-05-03T13:53:18.989Z,2.00
2023-05-03T13:58:17.325Z,2.27
2023-05-03T14:03:15.528Z,2.67
2023-05-03T14:08:14.061Z,1.87
2023-05-03T14:13:13.788Z,2.30
2023-05-03T14:18:12.338Z,2.60
2023-05-03T14:23:10.915Z,2.10
2023-05-03T14:28:09.344Z,1.87
2023-05-03T14:33:10.177Z,2.07
2023-05-03T14:38:08.766Z,2.13
2023-05-03T14:43:08.016Z,2.77
2023-05-03T14:48:08.253Z,2.17
2023-05-03T14:53:06.327Z,3.33
2023-05-03T14:58:05.532Z,1.70
2023-05-03T15:03:05.258Z,2.43
2023-05-03T15:08:05.713Z,1.80
2023-05-03T15:13:04.003Z,2.37
2023-05-03T15:18:02.258Z,2.20
2023-05-03T15:23:00.563Z,2.03
2023-05-03T15:28:03.856Z,1.80
2023-05-03T15:33:04.435Z,1.80
2023-05-03T15:38:02.450Z,2.33
2023-05-03T15:43:02.226Z,1.70
2023-05-03T15:48:00.492Z,2.23
2023-05-03T15:52:58.700Z,2.17
2023-05-03T15:57:57.263Z,2.60
2023-05-03T16:02:57.453Z,1.80
2023-05-03T16:07:55.782Z,2.30
2023-05-03T16:12:53.997Z,1.70
2023-05-03T16:17:54.250Z,2.63
2023-05-03T16:22:53.841Z,2.03
2023-05-03T16:27:52.491Z,1.93
2023-05-03T16:32:52.513Z,2.20
2023-05-03T16:37:52.038Z,2.00
2023-05-03T16:42:52.143Z,2.97
2023-05-03T16:47:51.124Z,2.27
2023-05-03T16:52:49.340Z,2.00
2023-05-03T16:57:47.541Z,1.60
2023-05-03T17:02:47.164Z,2.30
2023-05-03T17:07:46.187Z,1.80
2023-05-03T17:12:48.061Z,1.90
2023-05-03T17:17:47.576Z,1.70
2023-05-03T17:22:45.977Z,1.60
2023-05-03T17:27:44.489Z,2.60
2023-05-03T17:32:42.763Z,2.13
2023-05-03T17:37:42.880Z,1.67
2023-05-03T17:42:41.091Z,1.90
2023-05-03T17:47:40.175Z,1.73
2023-05-03T17:52:38.376Z,2.10
2023-05-03T17:57:38.163Z,2.00
2023-05-03T18:02:36.429Z,1.70
2023-05-03T18:07:34.527Z,1.80
2023-05-03T18:12:33.037Z,2.10
2023-05-03T18:17:32.826Z,1.90
2023-05-03T18:22:31.008Z,1.90
2023-05-03T18:27:29.660Z,2.10
2023-05-03T18:32:27.890Z,2.20
2023-05-03T18:37:27.587Z,1.97
2023-05-03T18:42:26.001Z,2.00
2023-05-03T18:47:24.890Z,2.30
2023-05-03T18:52:23.861Z,2.60
2023-05-03T18:57:23.468Z,2.00
2023-05-03T19:02:21.502Z,1.80
2023-05-03T19:07:19.877Z,1.80
2023-05-03T19:12:18.077Z,1.87
2023-05-03T19:17:17.913Z,2.30
2023-05-03T19:22:16.095Z,1.63
2023-05-03T19:27:14.339Z,2.20
2023-05-03T19:32:12.639Z,2.20
2023-05-03T19:37:12.020Z,3.40
2023-05-03T19:42:10.248Z,2.83
2023-05-03T19:47:08.757Z,2.13
2023-05-03T19:52:07.266Z,2.40
2023-05-03T19:57:07.559Z,2.00
2023-05-03T20:02:06.063Z,2.37
2023-05-03T20:07:04.304Z,2.40
2023-05-03T20:12:02.586Z,1.87
2023-05-03T20:17:02.354Z,1.93
2023-05-03T20:22:00.597Z,2.20
2023-05-03T20:26:58.843Z,2.27
2023-05-03T20:31:57.066Z,3.00
2023-05-03T20:36:56.685Z,2.40
2023-05-03T20:41:54.912Z,3.30
2023-05-03T20:46:53.159Z,2.63
2023-05-03T20:51:51.403Z,2.70
2023-05-03T20:56:51.006Z,2.60
2023-05-03T21:01:49.151Z,2.83
2023-05-03T21:06:47.602Z,3.60
2023-05-03T21:11:45.819Z,2.93
2023-05-03T21:16:45.601Z,3.33
2023-05-03T21:21:43.812Z,3.17
2023-05-03T21:26:42.017Z,2.60
2023-05-03T21:31:40.725Z,3.93
2023-05-03T21:36:40.414Z,2.67
2023-05-03T21:41:38.703Z,3.07
2023-05-03T21:46:36.853Z,2.63
2023-05-03T21:51:35.277Z,3.00
2023-05-03T21:56:34.836Z,3.10
2023-05-03T22:01:33.047Z,3.00
2023-05-03T22:06:32.224Z,3.23
2023-05-03T22:11:30.846Z,2.70
2023-05-03T22:16:30.412Z,3.20
2023-05-03T22:21:28.526Z,3.53
2023-05-03T22:26:26.969Z,3.10
2023-05-03T22:31:25.700Z,4.67
2023-05-03T22:36:25.289Z,3.23
2023-05-03T22:41:23.433Z,4.10
2023-05-03T22:46:21.770Z,3.70
2023-05-03T22:51:20.499Z,4.07
2023-05-03T22:56:20.063Z,3.70
2023-05-03T23:01:18.305Z,4.50
2023-05-03T23:06:16.716Z,3.90
2023-05-03T23:11:14.901Z,3.73
2023-05-03T23:16:14.737Z,3.80
2023-05-03T23:21:12.941Z,3.50
2023-05-03T23:26:11.112Z,3.50
2023-05-03T23:31:09.852Z,3.60
2023-05-03T23:36:10.764Z,3.07
2023-05-03T23:41:08.952Z,3.70
2023-05-03T23:46:07.107Z,3.00
2023-05-03T23:51:05.840Z,3.63
2023-05-03T23:56:05.632Z,3.80
